logo
Search for airport 
image banner adimage banner adimage banner ad
image banner ad

EPLY - Leczyca

Located in Leczyca, Poland

ICAO - EPLY, IATA -

Data provided by Airmate  

General information

Coordinates: N52°0'18" E19°8'38"
Elevation is 404 feet MSL.
Magnetic variation is 6.0000° East
View others Airports in Lodz

Operational data

Special qualification required
Current time UTC:
Current local time:
Weather
TAF: TAF EPLY 171700Z 1718/1806 22006KT CAVOK PROB30 TEMPO 1718/1724 -SHRA SCT040CB BECMG 1719/1721 VRB02KT
View NOTAMs / SUP AIP / TFR affecting this airport [VIEW]
Communications frequencies: [VIEW]

Runways:

RWY identifierQFULength (ft)Width (ft)SurfaceLDA (ft)
10104°8202197CONC+ASPH8202
28284°8202197CONC+ASPH8202

Airport contact information

Address: Leczyca Poland

Satellite view of EPLY